sensor_id;sensor_type;location;lat;lon;timestamp;temperature;humidity
23991;DHT22;12205;50.600;4.608;2024-03-08T00:01:28;6.70;99.90
23991;DHT22;12205;50.600;4.608;2024-03-08T00:03:55;6.60;99.90
23991;DHT22;12205;50.600;4.608;2024-03-08T00:10:18;6.50;99.90
23991;DHT22;12205;50.600;4.608;2024-03-08T00:12:46;6.50;99.90
23991;DHT22;12205;50.600;4.608;2024-03-08T00:15:15;6.60;99.90
23991;DHT22;12205;50.600;4.608;2024-03-08T00:17:43;6.60;99.90
23991;DHT22;12205;50.600;4.608;2024-03-08T00:20:10;6.60;99.90
23991;DHT22;12205;50.600;4.608;2024-03-08T00:22:38;6.60;99.90
23991;DHT22;12205;50.600;4.608;2024-03-08T00:25:07;6.50;99.90
23991;DHT22;12205;50.600;4.608;2024-03-08T00:27:37;6.60;99.90
23991;DHT22;12205;50.600;4.608;2024-03-08T00:30:05;6.60;99.90
23991;DHT22;12205;50.600;4.608;2024-03-08T00:32:33;6.60;99.90
23991;DHT22;12205;50.600;4.608;2024-03-08T00:35:01;6.50;99.90
23991;DHT22;12205;50.600;4.608;2024-03-08T00:37:28;6.50;99.90
23991;DHT22;12205;50.600;4.608;2024-03-08T00:39:56;6.40;99.90
23991;DHT22;12205;50.600;4.608;2024-03-08T00:42:23;6.30;99.90
23991;DHT22;12205;50.600;4.608;2024-03-08T00:44:52;6.20;99.90
23991;DHT22;12205;50.600;4.608;2024-03-08T00:47:19;6.20;99.90
23991;DHT22;12205;50.600;4.608;2024-03-08T00:49:46;6.30;99.90
23991;DHT22;12205;50.600;4.608;2024-03-08T00:52:13;6.30;99.90
23991;DHT22;12205;50.600;4.608;2024-03-08T00:54:40;6.40;99.90
23991;DHT22;12205;50.600;4.608;2024-03-08T00:57:08;6.40;99.90
23991;DHT22;12205;50.600;4.608;2024-03-08T00:59:37;6.40;99.90
23991;DHT22;12205;50.600;4.608;2024-03-08T01:02:06;6.40;99.90
23991;DHT22;12205;50.600;4.608;2024-03-08T01:04:34;6.40;99.90
23991;DHT22;12205;50.600;4.608;2024-03-08T01:07:01;6.40;99.90
23991;DHT22;12205;50.600;4.608;2024-03-08T01:09:28;6.30;99.90
23991;DHT22;12205;50.600;4.608;2024-03-08T01:11:56;6.40;99.90
23991;DHT22;12205;50.600;4.608;2024-03-08T01:14:23;6.30;99.90
23991;DHT22;12205;50.600;4.608;2024-03-08T01:16:51;6.30;99.90
23991;DHT22;12205;50.600;4.608;2024-03-08T01:19:19;6.30;99.90
23991;DHT22;12205;50.600;4.608;2024-03-08T01:21:46;6.20;99.90
23991;DHT22;12205;50.600;4.608;2024-03-08T01:24:13;6.10;99.90
23991;DHT22;12205;50.600;4.608;2024-03-08T01:26:40;6.10;99.90
23991;DHT22;12205;50.600;4.608;2024-03-08T01:29:07;6.20;99.90
23991;DHT22;12205;50.600;4.608;2024-03-08T01:31:34;6.20;99.90
23991;DHT22;12205;50.600;4.608;2024-03-08T01:34:02;6.20;99.90
23991;DHT22;12205;50.600;4.608;2024-03-08T01:36:31;6.20;99.90
23991;DHT22;12205;50.600;4.608;2024-03-08T01:38:59;6.00;99.90
23991;DHT22;12205;50.600;4.608;2024-03-08T01:41:26;6.00;99.90
23991;DHT22;12205;50.600;4.608;2024-03-08T01:43:57;6.00;99.90
23991;DHT22;12205;50.600;4.608;2024-03-08T01:46:25;6.10;99.90
23991;DHT22;12205;50.600;4.608;2024-03-08T01:48:54;6.10;99.90
23991;DHT22;12205;50.600;4.608;2024-03-08T01:51:21;6.00;99.90
23991;DHT22;12205;50.600;4.608;2024-03-08T01:53:50;6.00;99.90
23991;DHT22;12205;50.600;4.608;2024-03-08T01:56:17;6.00;99.90
23991;DHT22;12205;50.600;4.608;2024-03-08T01:58:45;6.10;99.90
23991;DHT22;12205;50.600;4.608;2024-03-08T02:01:12;6.00;99.90
23991;DHT22;12205;50.600;4.608;2024-03-08T02:03:40;6.00;99.90
23991;DHT22;12205;50.600;4.608;2024-03-08T02:06:10;5.90;99.90
23991;DHT22;12205;50.600;4.608;2024-03-08T02:08:39;5.80;99.90
23991;DHT22;12205;50.600;4.608;2024-03-08T02:11:07;5.80;99.90
23991;DHT22;12205;50.600;4.608;2024-03-08T02:13:34;5.70;99.90
23991;DHT22;12205;50.600;4.608;2024-03-08T02:16:01;5.70;99.90
23991;DHT22;12205;50.600;4.608;2024-03-08T02:18:30;5.70;99.90
23991;DHT22;12205;50.600;4.608;2024-03-08T02:21:02;5.70;99.90
23991;DHT22;12205;50.600;4.608;2024-03-08T02:23:30;5.50;99.90
23991;DHT22;12205;50.600;4.608;2024-03-08T02:25:57;5.50;99.90
23991;DHT22;12205;50.600;4.608;2024-03-08T02:28:25;5.50;99.90
23991;DHT22;12205;50.600;4.608;2024-03-08T02:30:52;5.60;99.90
23991;DHT22;12205;50.600;4.608;2024-03-08T02:33:20;5.50;99.90
23991;DHT22;12205;50.600;4.608;2024-03-08T02:35:47;5.50;99.90
23991;DHT22;12205;50.600;4.608;2024-03-08T02:38:17;5.40;99.90
23991;DHT22;12205;50.600;4.608;2024-03-08T02:40:45;5.30;99.90
23991;DHT22;12205;50.600;4.608;2024-03-08T02:43:13;5.30;99.90
23991;DHT22;12205;50.600;4.608;2024-03-08T02:45:41;5.40;99.90
23991;DHT22;12205;50.600;4.608;2024-03-08T02:48:09;5.50;99.90
23991;DHT22;12205;50.600;4.608;2024-03-08T02:50:36;5.40;99.90
23991;DHT22;12205;50.600;4.608;2024-03-08T02:53:05;5.20;99.90
23991;DHT22;12205;50.600;4.608;2024-03-08T02:55:35;5.30;99.90
23991;DHT22;12205;50.600;4.608;2024-03-08T02:58:03;5.30;99.90
23991;DHT22;12205;50.600;4.608;2024-03-08T03:00:31;5.10;99.90
23991;DHT22;12205;50.600;4.608;2024-03-08T03:02:58;5.30;99.90
23991;DHT22;12205;50.600;4.608;2024-03-08T03:05:25;5.30;99.90
23991;DHT22;12205;50.600;4.608;2024-03-08T03:07:52;5.20;99.90
23991;DHT22;12205;50.600;4.608;2024-03-08T03:10:19;5.20;99.90
23991;DHT22;12205;50.600;4.608;2024-03-08T03:12:49;5.20;99.90
23991;DHT22;12205;50.600;4.608;2024-03-08T03:15:16;5.20;99.90
23991;DHT22;12205;50.600;4.608;2024-03-08T03:17:46;5.30;99.90
23991;DHT22;12205;50.600;4.608;2024-03-08T03:20:13;5.30;99.90
23991;DHT22;12205;50.600;4.608;2024-03-08T03:22:48;5.20;99.90
23991;DHT22;12205;50.600;4.608;2024-03-08T03:25:18;5.20;99.90
23991;DHT22;12205;50.600;4.608;2024-03-08T03:27:52;5.10;99.90
23991;DHT22;12205;50.600;4.608;2024-03-08T03:30:22;5.00;99.90
23991;DHT22;12205;50.600;4.608;2024-03-08T03:32:51;5.00;99.90
23991;DHT22;12205;50.600;4.608;2024-03-08T03:35:20;5.00;99.90
23991;DHT22;12205;50.600;4.608;2024-03-08T03:37:48;4.90;99.90
23991;DHT22;12205;50.600;4.608;2024-03-08T03:40:29;5.00;99.90
23991;DHT22;12205;50.600;4.608;2024-03-08T03:42:58;4.90;99.90
23991;DHT22;12205;50.600;4.608;2024-03-08T03:45:25;4.90;99.90
23991;DHT22;12205;50.600;4.608;2024-03-08T03:47:52;4.90;99.90
23991;DHT22;12205;50.600;4.608;2024-03-08T03:50:20;4.90;99.90
23991;DHT22;12205;50.600;4.608;2024-03-08T03:52:47;5.00;99.90
23991;DHT22;12205;50.600;4.608;2024-03-08T03:55:15;4.90;99.90
23991;DHT22;12205;50.600;4.608;2024-03-08T03:57:42;4.80;99.90
23991;DHT22;12205;50.600;4.608;2024-03-08T04:00:13;4.80;99.90
23991;DHT22;12205;50.600;4.608;2024-03-08T04:02:40;4.80;99.90
23991;DHT22;12205;50.600;4.608;2024-03-08T04:05:09;4.80;99.90
23991;DHT22;12205;50.600;4.608;2024-03-08T04:07:37;4.80;99.90
23991;DHT22;12205;50.600;4.608;2024-03-08T04:10:05;4.80;99.90
23991;DHT22;12205;50.600;4.608;2024-03-08T04:12:33;4.60;99.90
23991;DHT22;12205;50.600;4.608;2024-03-08T04:15:00;4.60;99.90
23991;DHT22;12205;50.600;4.608;2024-03-08T04:17:28;4.60;99.90
23991;DHT22;12205;50.600;4.608;2024-03-08T04:19:55;4.60;99.90
23991;DHT22;12205;50.600;4.608;2024-03-08T04:22:22;4.80;99.90
23991;DHT22;12205;50.600;4.608;2024-03-08T04:24:49;4.60;99.90
23991;DHT22;12205;50.600;4.608;2024-03-08T04:27:16;4.60;99.90
23991;DHT22;12205;50.600;4.608;2024-03-08T04:29:43;4.60;99.90
23991;DHT22;12205;50.600;4.608;2024-03-08T04:32:10;4.70;99.90
23991;DHT22;12205;50.600;4.608;2024-03-08T04:34:40;4.70;99.90
23991;DHT22;12205;50.600;4.608;2024-03-08T04:37:07;4.70;99.90
23991;DHT22;12205;50.600;4.608;2024-03-08T04:39:36;4.70;99.90
23991;DHT22;12205;50.600;4.608;2024-03-08T04:42:05;4.60;99.90
23991;DHT22;12205;50.600;4.608;2024-03-08T04:44:36;4.60;99.90
23991;DHT22;12205;50.600;4.608;2024-03-08T04:47:03;4.60;99.90
23991;DHT22;12205;50.600;4.608;2024-03-08T04:49:31;4.60;99.90
23991;DHT22;12205;50.600;4.608;2024-03-08T04:52:02;4.60;99.90
23991;DHT22;12205;50.600;4.608;2024-03-08T04:54:29;4.60;99.90
23991;DHT22;12205;50.600;4.608;2024-03-08T04:56:56;4.50;99.90
23991;DHT22;12205;50.600;4.608;2024-03-08T04:59:25;4.50;99.90
23991;DHT22;12205;50.600;4.608;2024-03-08T05:01:53;4.40;99.90
23991;DHT22;12205;50.600;4.608;2024-03-08T05:04:20;4.50;99.90
23991;DHT22;12205;50.600;4.608;2024-03-08T05:06:48;4.50;99.90
23991;DHT22;12205;50.600;4.608;2024-03-08T05:09:16;4.60;99.90
23991;DHT22;12205;50.600;4.608;2024-03-08T05:11:45;4.60;99.90
23991;DHT22;12205;50.600;4.608;2024-03-08T05:14:13;4.50;99.90
23991;DHT22;12205;50.600;4.608;2024-03-08T05:16:42;4.30;99.90
23991;DHT22;12205;50.600;4.608;2024-03-08T05:19:09;4.30;99.90
23991;DHT22;12205;50.600;4.608;2024-03-08T05:21:36;4.20;99.90
23991;DHT22;12205;50.600;4.608;2024-03-08T05:24:03;4.20;99.90
23991;DHT22;12205;50.600;4.608;2024-03-08T05:26:32;4.30;99.90
23991;DHT22;12205;50.600;4.608;2024-03-08T05:28:59;4.30;99.90
23991;DHT22;12205;50.600;4.608;2024-03-08T05:31:26;4.30;99.90
23991;DHT22;12205;50.600;4.608;2024-03-08T05:33:54;4.30;99.90
23991;DHT22;12205;50.600;4.608;2024-03-08T05:36:22;4.50;99.90
23991;DHT22;12205;50.600;4.608;2024-03-08T05:38:48;4.40;99.90
23991;DHT22;12205;50.600;4.608;2024-03-08T05:41:16;4.30;99.90
23991;DHT22;12205;50.600;4.608;2024-03-08T05:43:45;4.30;99.90
23991;DHT22;12205;50.600;4.608;2024-03-08T05:46:15;4.20;99.90
23991;DHT22;12205;50.600;4.608;2024-03-08T05:48:43;4.30;99.90
23991;DHT22;12205;50.600;4.608;2024-03-08T05:51:10;4.30;99.90
23991;DHT22;12205;50.600;4.608;2024-03-08T05:53:38;4.30;99.90
23991;DHT22;12205;50.600;4.608;2024-03-08T05:56:06;4.30;99.90
23991;DHT22;12205;50.600;4.608;2024-03-08T05:58:35;4.20;99.90
23991;DHT22;12205;50.600;4.608;2024-03-08T06:01:03;4.30;99.90
23991;DHT22;12205;50.600;4.608;2024-03-08T06:03:33;4.30;99.90
23991;DHT22;12205;50.600;4.608;2024-03-08T06:06:00;4.40;99.90
23991;DHT22;12205;50.600;4.608;2024-03-08T06:08:28;4.40;99.90
23991;DHT22;12205;50.600;4.608;2024-03-08T06:10:56;4.40;99.90
23991;DHT22;12205;50.600;4.608;2024-03-08T06:13:24;4.30;99.90
23991;DHT22;12205;50.600;4.608;2024-03-08T06:15:51;4.30;99.90
23991;DHT22;12205;50.600;4.608;2024-03-08T06:18:20;4.30;99.90
23991;DHT22;12205;50.600;4.608;2024-03-08T06:20:47;4.30;99.90
23991;DHT22;12205;50.600;4.608;2024-03-08T06:23:14;4.20;99.90
23991;DHT22;12205;50.600;4.608;2024-03-08T06:25:43;4.30;99.90
23991;DHT22;12205;50.600;4.608;2024-03-08T06:28:10;4.30;99.90
23991;DHT22;12205;50.600;4.608;2024-03-08T06:30:37;4.40;99.90
23991;DHT22;12205;50.600;4.608;2024-03-08T06:33:04;4.50;99.90
23991;DHT22;12205;50.600;4.608;2024-03-08T06:35:34;4.50;99.90
23991;DHT22;12205;50.600;4.608;2024-03-08T06:38:03;4.40;99.90
23991;DHT22;12205;50.600;4.608;2024-03-08T06:40:30;4.40;99.90
23991;DHT22;12205;50.600;4.608;2024-03-08T06:42:57;4.30;99.90
23991;DHT22;12205;50.600;4.608;2024-03-08T06:45:24;4.30;99.90
23991;DHT22;12205;50.600;4.608;2024-03-08T06:47:51;4.30;99.90
23991;DHT22;12205;50.600;4.608;2024-03-08T06:50:18;4.40;99.90
23991;DHT22;12205;50.600;4.608;2024-03-08T06:52:47;4.30;99.90
23991;DHT22;12205;50.600;4.608;2024-03-08T06:55:19;4.40;99.90
23991;DHT22;12205;50.600;4.608;2024-03-08T06:57:46;4.40;99.90
23991;DHT22;12205;50.600;4.608;2024-03-08T07:00:14;4.40;99.90
23991;DHT22;12205;50.600;4.608;2024-03-08T07:02:44;4.40;99.90
23991;DHT22;12205;50.600;4.608;2024-03-08T07:05:12;4.40;99.90
23991;DHT22;12205;50.600;4.608;2024-03-08T07:07:39;4.60;99.90
23991;DHT22;12205;50.600;4.608;2024-03-08T07:10:09;4.60;99.90
23991;DHT22;12205;50.600;4.608;2024-03-08T07:12:37;4.70;99.90
23991;DHT22;12205;50.600;4.608;2024-03-08T07:15:05;4.60;99.90
23991;DHT22;12205;50.600;4.608;2024-03-08T07:17:32;4.70;99.90
23991;DHT22;12205;50.600;4.608;2024-03-08T07:20:01;4.70;99.90
23991;DHT22;12205;50.600;4.608;2024-03-08T07:22:37;4.70;99.90
23991;DHT22;12205;50.600;4.608;2024-03-08T07:25:05;4.70;99.90
23991;DHT22;12205;50.600;4.608;2024-03-08T07:27:47;4.80;99.90
23991;DHT22;12205;50.600;4.608;2024-03-08T07:30:14;4.90;99.90
23991;DHT22;12205;50.600;4.608;2024-03-08T07:33:04;4.90;99.90
23991;DHT22;12205;50.600;4.608;2024-03-08T07:35:32;5.00;99.90
23991;DHT22;12205;50.600;4.608;2024-03-08T07:38:03;5.00;99.90
23991;DHT22;12205;50.600;4.608;2024-03-08T07:40:31;4.90;99.90
23991;DHT22;12205;50.600;4.608;2024-03-08T07:43:00;5.00;99.90
23991;DHT22;12205;50.600;4.608;2024-03-08T07:45:27;5.00;99.90
23991;DHT22;12205;50.600;4.608;2024-03-08T07:47:56;5.30;99.90
23991;DHT22;12205;50.600;4.608;2024-03-08T07:50:23;5.40;99.90
23991;DHT22;12205;50.600;4.608;2024-03-08T07:52:50;5.30;99.90
23991;DHT22;12205;50.600;4.608;2024-03-08T07:55:17;5.30;99.90
23991;DHT22;12205;50.600;4.608;2024-03-08T07:57:44;5.50;99.90
23991;DHT22;12205;50.600;4.608;2024-03-08T08:00:16;5.60;99.90
23991;DHT22;12205;50.600;4.608;2024-03-08T08:02:44;5.60;99.90
23991;DHT22;12205;50.600;4.608;2024-03-08T08:05:12;5.70;99.90
23991;DHT22;12205;50.600;4.608;2024-03-08T08:07:39;5.70;99.90
23991;DHT22;12205;50.600;4.608;2024-03-08T08:10:09;5.80;99.90
23991;DHT22;12205;50.600;4.608;2024-03-08T08:12:42;5.90;99.90
23991;DHT22;12205;50.600;4.608;2024-03-08T08:15:09;6.00;99.90
23991;DHT22;12205;50.600;4.608;2024-03-08T08:17:38;6.00;99.90
23991;DHT22;12205;50.600;4.608;2024-03-08T08:20:06;6.10;99.90
23991;DHT22;12205;50.600;4.608;2024-03-08T08:22:33;6.20;99.90
23991;DHT22;12205;50.600;4.608;2024-03-08T08:25:00;6.10;99.90
23991;DHT22;12205;50.600;4.608;2024-03-08T08:27:27;6.20;99.90
23991;DHT22;12205;50.600;4.608;2024-03-08T08:29:54;6.30;99.90
23991;DHT22;12205;50.600;4.608;2024-03-08T08:32:21;6.50;99.90
23991;DHT22;12205;50.600;4.608;2024-03-08T08:34:50;6.60;99.90
23991;DHT22;12205;50.600;4.608;2024-03-08T08:37:17;6.70;99.90
23991;DHT22;12205;50.600;4.608;2024-03-08T08:39:44;6.80;99.90
23991;DHT22;12205;50.600;4.608;2024-03-08T08:42:11;6.80;99.90
23991;DHT22;12205;50.600;4.608;2024-03-08T08:44:38;6.80;99.90
23991;DHT22;12205;50.600;4.608;2024-03-08T08:47:06;7.00;99.90
23991;DHT22;12205;50.600;4.608;2024-03-08T08:49:33;6.90;99.90
23991;DHT22;12205;50.600;4.608;2024-03-08T08:52:02;6.90;99.90
23991;DHT22;12205;50.600;4.608;2024-03-08T08:54:29;6.90;99.90
23991;DHT22;12205;50.600;4.608;2024-03-08T08:56:57;7.00;99.90
23991;DHT22;12205;50.600;4.608;2024-03-08T08:59:24;7.10;99.90
23991;DHT22;12205;50.600;4.608;2024-03-08T09:01:51;7.30;99.90
23991;DHT22;12205;50.600;4.608;2024-03-08T09:04:19;7.20;99.90
23991;DHT22;12205;50.600;4.608;2024-03-08T09:06:48;7.40;99.90
23991;DHT22;12205;50.600;4.608;2024-03-08T09:09:17;7.50;99.90
23991;DHT22;12205;50.600;4.608;2024-03-08T09:11:44;7.60;99.90
23991;DHT22;12205;50.600;4.608;2024-03-08T09:14:11;7.80;99.90
23991;DHT22;12205;50.600;4.608;2024-03-08T09:16:39;7.90;99.90
23991;DHT22;12205;50.600;4.608;2024-03-08T09:19:07;7.80;99.90
23991;DHT22;12205;50.600;4.608;2024-03-08T09:21:36;7.90;99.90
23991;DHT22;12205;50.600;4.608;2024-03-08T09:24:05;8.10;99.90
23991;DHT22;12205;50.600;4.608;2024-03-08T09:26:34;8.10;99.90
23991;DHT22;12205;50.600;4.608;2024-03-08T09:29:01;8.10;99.90
23991;DHT22;12205;50.600;4.608;2024-03-08T09:31:28;8.10;99.90
23991;DHT22;12205;50.600;4.608;2024-03-08T09:33:55;8.30;99.90
23991;DHT22;12205;50.600;4.608;2024-03-08T09:36:22;8.50;99.90
23991;DHT22;12205;50.600;4.608;2024-03-08T09:38:50;8.50;99.90
23991;DHT22;12205;50.600;4.608;2024-03-08T09:41:18;8.70;99.90
23991;DHT22;12205;50.600;4.608;2024-03-08T09:43:47;8.80;99.90
23991;DHT22;12205;50.600;4.608;2024-03-08T09:46:14;9.00;99.90
23991;DHT22;12205;50.600;4.608;2024-03-08T09:48:42;9.20;99.90
23991;DHT22;12205;50.600;4.608;2024-03-08T09:51:09;9.20;99.90
23991;DHT22;12205;50.600;4.608;2024-03-08T09:53:41;9.30;99.90
23991;DHT22;12205;50.600;4.608;2024-03-08T09:56:09;9.30;99.90
23991;DHT22;12205;50.600;4.608;2024-03-08T09:58:37;9.30;99.90
23991;DHT22;12205;50.600;4.608;2024-03-08T10:01:21;9.40;99.90
23991;DHT22;12205;50.600;4.608;2024-03-08T10:03:48;9.50;99.90
23991;DHT22;12205;50.600;4.608;2024-03-08T10:06:16;9.60;99.90
23991;DHT22;12205;50.600;4.608;2024-03-08T10:08:43;9.60;99.90
23991;DHT22;12205;50.600;4.608;2024-03-08T10:11:10;9.80;99.90
23991;DHT22;12205;50.600;4.608;2024-03-08T10:13:38;10.00;99.90
23991;DHT22;12205;50.600;4.608;2024-03-08T10:16:06;10.10;99.90
23991;DHT22;12205;50.600;4.608;2024-03-08T10:18:35;10.20;99.90
23991;DHT22;12205;50.600;4.608;2024-03-08T10:21:03;10.20;99.90
23991;DHT22;12205;50.600;4.608;2024-03-08T10:23:31;10.50;99.90
23991;DHT22;12205;50.600;4.608;2024-03-08T10:26:10;10.70;99.90
23991;DHT22;12205;50.600;4.608;2024-03-08T10:28:41;10.80;99.90
23991;DHT22;12205;50.600;4.608;2024-03-08T10:31:08;10.80;99.90
23991;DHT22;12205;50.600;4.608;2024-03-08T10:33:37;11.00;99.90
23991;DHT22;12205;50.600;4.608;2024-03-08T10:36:07;10.80;99.90
23991;DHT22;12205;50.600;4.608;2024-03-08T10:38:36;10.80;99.90
23991;DHT22;12205;50.600;4.608;2024-03-08T10:41:05;10.90;99.90
23991;DHT22;12205;50.600;4.608;2024-03-08T10:43:40;11.00;99.90
23991;DHT22;12205;50.600;4.608;2024-03-08T10:46:18;11.10;99.90
23991;DHT22;12205;50.600;4.608;2024-03-08T10:48:50;11.40;99.90
23991;DHT22;12205;50.600;4.608;2024-03-08T10:51:19;11.60;99.90
23991;DHT22;12205;50.600;4.608;2024-03-08T10:53:48;11.60;99.90
23991;DHT22;12205;50.600;4.608;2024-03-08T10:56:17;11.50;99.90
23991;DHT22;12205;50.600;4.608;2024-03-08T10:58:44;11.50;99.90
23991;DHT22;12205;50.600;4.608;2024-03-08T11:01:12;11.60;99.90
23991;DHT22;12205;50.600;4.608;2024-03-08T11:03:49;11.70;99.90
23991;DHT22;12205;50.600;4.608;2024-03-08T11:06:21;11.90;99.90
23991;DHT22;12205;50.600;4.608;2024-03-08T11:08:49;11.90;99.90
23991;DHT22;12205;50.600;4.608;2024-03-08T11:11:27;11.90;99.90
23991;DHT22;12205;50.600;4.608;2024-03-08T11:13:56;11.80;99.90
23991;DHT22;12205;50.600;4.608;2024-03-08T11:16:37;11.80;99.90
23991;DHT22;12205;50.600;4.608;2024-03-08T11:19:25;12.10;99.90
23991;DHT22;12205;50.600;4.608;2024-03-08T11:22:01;12.10;99.90
23991;DHT22;12205;50.600;4.608;2024-03-08T11:24:37;12.30;99.90
23991;DHT22;12205;50.600;4.608;2024-03-08T11:27:09;12.60;99.90
23991;DHT22;12205;50.600;4.608;2024-03-08T11:29:38;12.80;99.90
23991;DHT22;12205;50.600;4.608;2024-03-08T11:32:10;12.90;99.90
23991;DHT22;12205;50.600;4.608;2024-03-08T11:34:40;13.00;99.90
23991;DHT22;12205;50.600;4.608;2024-03-08T11:37:12;13.00;99.90
23991;DHT22;12205;50.600;4.608;2024-03-08T11:39:41;13.10;99.90
23991;DHT22;12205;50.600;4.608;2024-03-08T11:42:13;13.00;99.90
23991;DHT22;12205;50.600;4.608;2024-03-08T11:44:40;13.00;99.90
23991;DHT22;12205;50.600;4.608;2024-03-08T11:47:10;13.10;99.90
23991;DHT22;12205;50.600;4.608;2024-03-08T11:49:38;13.20;99.90
23991;DHT22;12205;50.600;4.608;2024-03-08T11:52:11;13.40;99.90
23991;DHT22;12205;50.600;4.608;2024-03-08T11:54:39;13.50;99.90
23991;DHT22;12205;50.600;4.608;2024-03-08T11:57:06;13.70;99.90
23991;DHT22;12205;50.600;4.608;2024-03-08T11:59:35;13.60;99.90
23991;DHT22;12205;50.600;4.608;2024-03-08T12:02:04;13.50;99.90
23991;DHT22;12205;50.600;4.608;2024-03-08T12:04:31;13.70;99.90
23991;DHT22;12205;50.600;4.608;2024-03-08T12:07:03;13.90;99.90
23991;DHT22;12205;50.600;4.608;2024-03-08T12:09:35;14.00;99.90
23991;DHT22;12205;50.600;4.608;2024-03-08T12:12:03;14.20;99.90
23991;DHT22;12205;50.600;4.608;2024-03-08T12:14:30;14.40;99.90
23991;DHT22;12205;50.600;4.608;2024-03-08T12:16:58;14.60;99.90
23991;DHT22;12205;50.600;4.608;2024-03-08T12:19:27;14.80;99.90
23991;DHT22;12205;50.600;4.608;2024-03-08T12:21:54;15.20;99.90
23991;DHT22;12205;50.600;4.608;2024-03-08T12:24:23;15.40;99.90
23991;DHT22;12205;50.600;4.608;2024-03-08T12:26:50;15.60;99.90
23991;DHT22;12205;50.600;4.608;2024-03-08T12:29:19;16.00;99.90
23991;DHT22;12205;50.600;4.608;2024-03-08T12:31:49;16.70;99.90
23991;DHT22;12205;50.600;4.608;2024-03-08T12:34:17;20.20;99.90
23991;DHT22;12205;50.600;4.608;2024-03-08T12:36:48;24.00;94.30
23991;DHT22;12205;50.600;4.608;2024-03-08T12:39:17;26.80;84.20
23991;DHT22;12205;50.600;4.608;2024-03-08T12:41:49;28.70;65.70
23991;DHT22;12205;50.600;4.608;2024-03-08T12:44:17;30.50;54.80
23991;DHT22;12205;50.600;4.608;2024-03-08T12:46:44;31.40;50.20
23991;DHT22;12205;50.600;4.608;2024-03-08T12:49:12;31.60;48.80
23991;DHT22;12205;50.600;4.608;2024-03-08T12:51:43;31.70;46.20
23991;DHT22;12205;50.600;4.608;2024-03-08T12:54:10;32.70;45.40
23991;DHT22;12205;50.600;4.608;2024-03-08T12:56:37;33.30;43.90
23991;DHT22;12205;50.600;4.608;2024-03-08T12:59:07;33.60;40.90
23991;DHT22;12205;50.600;4.608;2024-03-08T13:01:35;34.00;40.60
23991;DHT22;12205;50.600;4.608;2024-03-08T13:04:03;32.90;39.50
23991;DHT22;12205;50.600;4.608;2024-03-08T13:06:32;32.60;39.10
23991;DHT22;12205;50.600;4.608;2024-03-08T13:08:59;32.70;39.50
23991;DHT22;12205;50.600;4.608;2024-03-08T13:11:31;33.50;38.90
23991;DHT22;12205;50.600;4.608;2024-03-08T13:14:03;33.70;38.50
23991;DHT22;12205;50.600;4.608;2024-03-08T13:16:32;33.50;38.70
23991;DHT22;12205;50.600;4.608;2024-03-08T13:19:00;33.80;38.10
23991;DHT22;12205;50.600;4.608;2024-03-08T13:21:27;33.90;39.30
23991;DHT22;12205;50.600;4.608;2024-03-08T13:23:56;34.20;35.80
23991;DHT22;12205;50.600;4.608;2024-03-08T13:26:24;34.10;37.40
23991;DHT22;12205;50.600;4.608;2024-03-08T13:28:58;33.60;37.00
23991;DHT22;12205;50.600;4.608;2024-03-08T13:31:25;33.80;36.10
23991;DHT22;12205;50.600;4.608;2024-03-08T13:33:52;34.00;36.40
23991;DHT22;12205;50.600;4.608;2024-03-08T13:36:24;34.10;36.80
23991;DHT22;12205;50.600;4.608;2024-03-08T13:38:54;33.70;36.60
23991;DHT22;12205;50.600;4.608;2024-03-08T13:41:21;33.80;37.50
23991;DHT22;12205;50.600;4.608;2024-03-08T13:43:50;33.80;36.60
23991;DHT22;12205;50.600;4.608;2024-03-08T13:46:19;33.50;36.40
23991;DHT22;12205;50.600;4.608;2024-03-08T13:48:46;33.30;36.80
23991;DHT22;12205;50.600;4.608;2024-03-08T13:51:15;32.90;35.90
23991;DHT22;12205;50.600;4.608;2024-03-08T13:53:43;33.40;35.90
23991;DHT22;12205;50.600;4.608;2024-03-08T13:56:10;33.30;36.20
23991;DHT22;12205;50.600;4.608;2024-03-08T13:58:37;33.10;36.70
23991;DHT22;12205;50.600;4.608;2024-03-08T14:01:05;32.80;36.30
23991;DHT22;12205;50.600;4.608;2024-03-08T14:03:37;32.70;35.40
23991;DHT22;12205;50.600;4.608;2024-03-08T14:06:04;32.70;36.30
23991;DHT22;12205;50.600;4.608;2024-03-08T14:08:34;32.30;36.40
23991;DHT22;12205;50.600;4.608;2024-03-08T14:11:03;32.30;35.90
23991;DHT22;12205;50.600;4.608;2024-03-08T14:13:41;32.50;35.20
23991;DHT22;12205;50.600;4.608;2024-03-08T14:16:08;31.90;36.50
23991;DHT22;12205;50.600;4.608;2024-03-08T14:18:36;32.00;36.30
23991;DHT22;12205;50.600;4.608;2024-03-08T14:21:03;31.90;36.20
23991;DHT22;12205;50.600;4.608;2024-03-08T14:23:31;31.90;35.80
23991;DHT22;12205;50.600;4.608;2024-03-08T14:25:59;31.80;36.00
23991;DHT22;12205;50.600;4.608;2024-03-08T14:28:27;32.00;36.80
23991;DHT22;12205;50.600;4.608;2024-03-08T14:30:54;30.50;36.70
23991;DHT22;12205;50.600;4.608;2024-03-08T14:33:21;29.90;38.00
23991;DHT22;12205;50.600;4.608;2024-03-08T14:35:49;30.30;38.20
23991;DHT22;12205;50.600;4.608;2024-03-08T14:38:16;30.70;38.30
23991;DHT22;12205;50.600;4.608;2024-03-08T14:40:43;30.20;36.20
23991;DHT22;12205;50.600;4.608;2024-03-08T14:43:14;30.10;36.80
23991;DHT22;12205;50.600;4.608;2024-03-08T14:45:42;29.90;38.00
23991;DHT22;12205;50.600;4.608;2024-03-08T14:48:13;30.30;36.90
23991;DHT22;12205;50.600;4.608;2024-03-08T14:50:40;29.40;38.10
23991;DHT22;12205;50.600;4.608;2024-03-08T14:53:09;29.30;37.30
23991;DHT22;12205;50.600;4.608;2024-03-08T14:55:38;28.90;37.80
23991;DHT22;12205;50.600;4.608;2024-03-08T14:58:05;29.10;38.60
23991;DHT22;12205;50.600;4.608;2024-03-08T15:00:33;28.70;38.90
23991;DHT22;12205;50.600;4.608;2024-03-08T15:03:01;28.90;37.90
23991;DHT22;12205;50.600;4.608;2024-03-08T15:05:30;28.20;39.00
23991;DHT22;12205;50.600;4.608;2024-03-08T15:07:58;28.00;39.80
23991;DHT22;12205;50.600;4.608;2024-03-08T15:10:26;28.40;39.00
23991;DHT22;12205;50.600;4.608;2024-03-08T15:12:55;27.70;39.30
23991;DHT22;12205;50.600;4.608;2024-03-08T15:15:24;26.80;40.30
23991;DHT22;12205;50.600;4.608;2024-03-08T15:17:53;26.50;41.00
23991;DHT22;12205;50.600;4.608;2024-03-08T15:20:23;27.10;42.10
23991;DHT22;12205;50.600;4.608;2024-03-08T15:22:51;27.80;40.50
23991;DHT22;12205;50.600;4.608;2024-03-08T15:25:20;27.60;40.00
23991;DHT22;12205;50.600;4.608;2024-03-08T15:27:51;27.20;39.90
23991;DHT22;12205;50.600;4.608;2024-03-08T15:30:19;26.40;40.80
23991;DHT22;12205;50.600;4.608;2024-03-08T15:32:48;25.70;42.30
23991;DHT22;12205;50.600;4.608;2024-03-08T15:35:18;25.60;41.70
23991;DHT22;12205;50.600;4.608;2024-03-08T15:37:45;25.40;42.60
23991;DHT22;12205;50.600;4.608;2024-03-08T15:40:12;25.40;42.70
23991;DHT22;12205;50.600;4.608;2024-03-08T15:42:54;25.00;42.20
23991;DHT22;12205;50.600;4.608;2024-03-08T15:45:22;25.10;43.20
23991;DHT22;12205;50.600;4.608;2024-03-08T15:47:49;25.10;44.70
23991;DHT22;12205;50.600;4.608;2024-03-08T15:50:18;24.70;43.70
23991;DHT22;12205;50.600;4.608;2024-03-08T15:52:49;24.00;43.70